createdAt,value
2019-02-23T00:01:18.858Z,0.81
2019-02-23T00:03:48.023Z,0.82
2019-02-23T00:06:17.288Z,0.86
2019-02-23T00:08:46.419Z,0.76
2019-02-23T00:11:15.538Z,0.62
2019-02-23T00:13:44.660Z,0.63
2019-02-23T00:16:13.765Z,0.56
2019-02-23T00:18:42.890Z,0.51
2019-02-23T00:21:12.366Z,0.57
2019-02-23T00:23:41.495Z,0.53
2019-02-23T00:26:10.611Z,0.53
2019-02-23T00:28:39.732Z,0.43
2019-02-23T00:31:08.838Z,0.47
2019-02-23T00:33:37.968Z,0.38
2019-02-23T00:36:07.073Z,0.21
2019-02-23T00:38:36.257Z,0.34
2019-02-23T00:41:05.491Z,0.40
2019-02-23T00:43:34.697Z,0.37
2019-02-23T00:46:03.850Z,0.42
2019-02-23T00:48:33.043Z,0.48
2019-02-23T00:51:02.252Z,0.30
2019-02-23T00:53:31.343Z,0.28
2019-02-23T00:56:00.475Z,0.35
2019-02-23T00:58:29.569Z,0.30
2019-02-23T01:00:58.702Z,0.20
2019-02-23T01:03:27.872Z,0.18
2019-02-23T01:05:57.026Z,0.13
2019-02-23T01:08:26.121Z,0.17
2019-02-23T01:10:58.035Z,0.30
2019-02-23T01:13:26.083Z,0.26
2019-02-23T01:15:55.219Z,0.39
2019-02-23T01:18:24.328Z,0.03
2019-02-23T01:20:53.482Z,0.13
2019-02-23T01:23:22.577Z,-0.01
2019-02-23T01:25:52.014Z,-0.02
2019-02-23T01:28:21.130Z,-0.03
2019-02-23T01:30:50.593Z,-0.15
2019-02-23T01:33:19.692Z,0.01
2019-02-23T01:35:48.922Z,-0.12
2019-02-23T01:38:18.030Z,-0.01
2019-02-23T01:40:47.176Z,0.00
2019-02-23T01:43:16.918Z,-0.12
2019-02-23T01:45:46.065Z,0.03
2019-02-23T01:48:15.153Z,-0.04
2019-02-23T01:50:44.305Z,-0.10
2019-02-23T01:53:13.752Z,-0.08
2019-02-23T01:55:42.909Z,-0.10
2019-02-23T01:58:12.040Z,-0.13
2019-02-23T02:00:41.647Z,-0.13
2019-02-23T02:03:10.796Z,-0.07
2019-02-23T02:05:39.942Z,-0.09
2019-02-23T02:08:09.061Z,-0.19
2019-02-23T02:10:38.265Z,-0.26
2019-02-23T02:13:07.722Z,-0.17
2019-02-23T02:15:36.819Z,-0.45
2019-02-23T02:18:06.075Z,-0.29
2019-02-23T02:20:35.216Z,-0.27
2019-02-23T02:23:04.342Z,-0.37
2019-02-23T02:25:33.449Z,-0.41
2019-02-23T02:28:02.648Z,-0.39
2019-02-23T02:30:31.771Z,-0.48
2019-02-23T02:33:01.221Z,-0.64
2019-02-23T02:35:30.432Z,-0.44
2019-02-23T02:37:59.911Z,-0.46
2019-02-23T02:40:29.011Z,-0.45
2019-02-23T02:42:58.141Z,-0.41
2019-02-23T02:45:27.253Z,-0.52
2019-02-23T02:47:56.389Z,-0.46
2019-02-23T02:50:25.497Z,-0.37
2019-02-23T02:52:54.639Z,-0.54
2019-02-23T02:55:23.737Z,-0.42
2019-02-23T02:57:52.891Z,-0.42
2019-02-23T03:00:22.001Z,-0.46
2019-02-23T03:02:51.149Z,-0.44
2019-02-23T03:05:20.246Z,-0.44
2019-02-23T03:07:49.376Z,-0.34
2019-02-23T03:10:18.478Z,-0.37
2019-02-23T03:12:47.643Z,-0.40
2019-02-23T03:15:16.769Z,-0.30
2019-02-23T03:17:45.937Z,-0.28
2019-02-23T03:20:15.029Z,-0.41
2019-02-23T03:22:44.152Z,-0.45
2019-02-23T03:25:13.255Z,-0.31
2019-02-23T03:27:42.408Z,-0.30
2019-02-23T03:30:12.077Z,-0.28
2019-02-23T03:32:41.229Z,-0.11
2019-02-23T03:35:10.263Z,-0.29
2019-02-23T03:37:39.367Z,-0.45
2019-02-23T03:40:09.527Z,-0.37
2019-02-23T03:42:38.696Z,-0.43
2019-02-23T03:45:07.876Z,-0.36
2019-02-23T03:47:36.947Z,-0.34
2019-02-23T03:50:06.211Z,-0.48
2019-02-23T03:52:35.312Z,-0.50
2019-02-23T03:55:04.818Z,-0.62
2019-02-23T03:57:33.888Z,-0.58
2019-02-23T04:00:03.213Z,-0.66
2019-02-23T04:02:40.348Z,-0.64
2019-02-23T04:05:09.422Z,-0.70
2019-02-23T04:07:38.908Z,-0.72
2019-02-23T04:10:08.003Z,-0.80
2019-02-23T04:12:37.064Z,-0.74
2019-02-23T04:15:06.262Z,-0.74
2019-02-23T04:17:38.145Z,-1.15
2019-02-23T04:20:07.303Z,-1.45
2019-02-23T04:22:36.373Z,-1.45
2019-02-23T04:25:05.519Z,-1.29
2019-02-23T04:27:37.060Z,-1.23
2019-02-23T04:30:06.217Z,-1.17
2019-02-23T04:32:35.348Z,-1.28
2019-02-23T04:35:04.443Z,-1.14
2019-02-23T04:37:34.665Z,-1.00
2019-02-23T04:40:03.943Z,-1.05
2019-02-23T04:42:33.055Z,-1.04
2019-02-23T04:45:05.000Z,-1.17
2019-02-23T04:47:34.186Z,-1.35
2019-02-23T04:50:06.011Z,-1.41
2019-02-23T04:52:37.289Z,-1.25
2019-02-23T04:55:10.051Z,-1.14
2019-02-23T04:57:39.293Z,-1.21
2019-02-23T05:00:09.821Z,-1.17
2019-02-23T05:02:39.012Z,-1.09
2019-02-23T05:05:08.906Z,-1.02
2019-02-23T05:07:38.730Z,-1.00
2019-02-23T05:10:08.022Z,-1.10
2019-02-23T05:12:37.124Z,-1.15
2019-02-23T05:15:06.752Z,-1.07
2019-02-23T05:17:36.030Z,-1.17
2019-02-23T05:20:05.695Z,-1.14
2019-02-23T05:22:40.309Z,-1.17
2019-02-23T05:25:09.429Z,-1.01
2019-02-23T05:27:38.482Z,-1.10
2019-02-23T05:30:08.563Z,-1.02
2019-02-23T05:32:37.634Z,-1.19
2019-02-23T05:35:08.036Z,-1.09
2019-02-23T05:37:37.202Z,-1.09
2019-02-23T05:40:08.072Z,-1.12
2019-02-23T05:42:37.285Z,-1.42
2019-02-23T05:45:15.858Z,-1.66
2019-02-23T05:47:45.216Z,-1.93
2019-02-23T05:50:14.453Z,-2.09
2019-02-23T05:52:43.650Z,-1.80
2019-02-23T05:55:12.881Z,-1.55
2019-02-23T05:57:42.311Z,-1.41
2019-02-23T06:00:16.327Z,-1.58
2019-02-23T06:02:45.898Z,-1.48
2019-02-23T06:05:15.020Z,-1.59
2019-02-23T06:07:44.141Z,-1.68
2019-02-23T06:10:14.816Z,-2.03
2019-02-23T06:12:43.882Z,-2.14
2019-02-23T06:15:13.476Z,-2.40
2019-02-23T06:17:42.534Z,-2.24
2019-02-23T06:20:11.781Z,-2.22
2019-02-23T06:22:40.990Z,-2.33
2019-02-23T06:25:10.340Z,-2.42
2019-02-23T06:27:39.421Z,-2.20
2019-02-23T06:30:11.593Z,-1.96
2019-02-23T06:32:40.771Z,-2.09
2019-02-23T06:35:09.939Z,-1.96
2019-02-23T06:37:38.940Z,-2.07
2019-02-23T06:40:08.660Z,-2.06
2019-02-23T06:42:48.323Z,-2.13
2019-02-23T06:45:17.413Z,-2.38
2019-02-23T06:47:46.589Z,-2.43
2019-02-23T06:50:15.718Z,-2.55
2019-02-23T06:52:44.778Z,-2.50
2019-02-23T06:55:14.054Z,-2.36
2019-02-23T06:57:43.149Z,-2.04
2019-02-23T07:00:15.205Z,-2.03
2019-02-23T07:02:49.574Z,-2.08
2019-02-23T07:05:22.047Z,-1.99
2019-02-23T07:07:53.942Z,-1.84
2019-02-23T07:10:25.822Z,-1.78
2019-02-23T07:12:57.454Z,-1.93
2019-02-23T07:15:26.675Z,-1.91
2019-02-23T07:17:56.213Z,-1.61
2019-02-23T07:20:25.359Z,-1.67
2019-02-23T07:23:07.509Z,-1.74
2019-02-23T07:25:37.917Z,-1.56
2019-02-23T07:28:10.892Z,-1.44
2019-02-23T07:30:41.933Z,-1.38
2019-02-23T07:33:11.125Z,-1.54
2019-02-23T07:35:44.850Z,-1.51
2019-02-23T07:38:43.986Z,-1.55
2019-02-23T07:41:15.251Z,-1.36
2019-02-23T07:43:46.112Z,-1.39
2019-02-23T07:46:15.305Z,-1.45
2019-02-23T07:48:55.782Z,-1.27
2019-02-23T07:51:25.173Z,-1.21
2019-02-23T07:53:58.800Z,-0.95
2019-02-23T07:56:28.164Z,-0.88
2019-02-23T07:58:58.938Z,-0.69
2019-02-23T08:01:30.166Z,-0.71
2019-02-23T08:03:59.343Z,-0.73
2019-02-23T08:06:46.441Z,-0.81
2019-02-23T08:09:06.098Z,-0.69
2019-02-23T08:11:39.607Z,-0.48
2019-02-23T08:14:08.943Z,-0.37
2019-02-23T08:16:39.221Z,-0.15
2019-02-23T08:19:08.432Z,0.07
2019-02-23T08:21:37.574Z,0.08
2019-02-23T08:24:12.040Z,0.14
2019-02-23T08:26:47.068Z,0.22
2019-02-23T08:29:19.507Z,0.22
2019-02-23T08:31:49.056Z,0.29
2019-02-23T08:34:18.446Z,0.48
2019-02-23T08:36:49.706Z,0.47
2019-02-23T08:43:08.530Z,0.57
2019-02-23T08:45:37.570Z,0.63
2019-02-23T08:48:06.683Z,0.60
2019-02-23T08:50:35.773Z,0.63
2019-02-23T08:53:04.928Z,0.57
2019-02-23T08:55:35.317Z,0.81
2019-02-23T08:58:08.089Z,0.80
2019-02-23T09:00:45.116Z,0.79
2019-02-23T09:03:11.646Z,0.94
2019-02-23T09:05:42.450Z,0.87
2019-02-23T09:08:13.011Z,0.82
2019-02-23T09:10:42.142Z,1.05
2019-02-23T09:13:15.365Z,1.12
2019-02-23T09:15:45.468Z,1.16
2019-02-23T09:18:15.117Z,1.16
2019-02-23T09:20:47.567Z,1.38
2019-02-23T09:23:17.830Z,1.32
2019-02-23T09:25:52.045Z,1.36
2019-02-23T09:28:23.619Z,1.42
2019-02-23T09:30:52.935Z,1.57
2019-02-23T09:33:22.079Z,1.58
2019-02-23T09:35:51.183Z,1.68
2019-02-23T09:38:20.558Z,1.66
2019-02-23T09:40:50.025Z,1.77
2019-02-23T09:43:19.742Z,1.76
2019-02-23T09:45:48.866Z,2.03
2019-02-23T09:48:21.005Z,2.11
2019-02-23T09:50:50.221Z,2.09
2019-02-23T09:53:25.167Z,2.25
2019-02-23T09:55:55.233Z,2.18
2019-02-23T09:58:31.108Z,2.32
2019-02-23T10:01:02.837Z,2.54
2019-02-23T10:03:50.547Z,2.73
2019-02-23T10:06:20.252Z,2.59
2019-02-23T10:08:51.265Z,2.68
2019-02-23T10:11:20.839Z,2.89
2019-02-23T10:13:52.177Z,2.92
2019-02-23T10:16:27.567Z,2.92
2019-02-23T10:19:07.300Z,3.04
2019-02-23T10:22:28.007Z,3.15
2019-02-23T10:25:00.225Z,3.47
2019-02-23T10:27:34.528Z,3.54
2019-02-23T10:30:06.728Z,3.45
2019-02-23T10:32:38.379Z,3.40
2019-02-23T10:35:12.632Z,3.38
2019-02-23T10:37:43.096Z,3.55
2019-02-23T10:40:19.114Z,3.57
2019-02-23T10:42:51.118Z,3.55
2019-02-23T10:45:22.018Z,3.63
2019-02-23T10:47:51.148Z,3.79
2019-02-23T10:50:23.054Z,3.86
2019-02-23T10:52:53.667Z,3.79
2019-02-23T10:55:24.367Z,3.77
2019-02-23T10:57:56.426Z,3.87
2019-02-23T11:00:25.822Z,4.03
2019-02-23T11:02:57.071Z,3.82
2019-02-23T11:05:26.123Z,3.86
2019-02-23T11:08:02.660Z,4.14
2019-02-23T11:10:34.051Z,4.11
2019-02-23T11:13:03.761Z,4.23
2019-02-23T11:15:36.156Z,4.32
2019-02-23T11:18:05.554Z,4.34
2019-02-23T11:20:35.533Z,4.46
2019-02-23T11:23:04.716Z,4.55
2019-02-23T11:25:34.016Z,4.63
2019-02-23T11:28:03.249Z,4.63
2019-02-23T11:30:32.411Z,4.61
2019-02-23T11:33:01.624Z,4.76
2019-02-23T11:35:30.817Z,4.87
2019-02-23T11:38:00.028Z,4.87
2019-02-23T11:40:29.335Z,4.93
2019-02-23T11:42:58.565Z,5.04
2019-02-23T11:45:27.867Z,5.02
2019-02-23T11:47:57.003Z,5.04
2019-02-23T11:50:26.242Z,4.99
2019-02-23T11:52:55.417Z,5.01
2019-02-23T11:55:24.971Z,5.06
2019-02-23T11:57:54.213Z,5.00
2019-02-23T12:00:24.268Z,5.10
2019-02-23T12:02:53.450Z,5.17
2019-02-23T12:05:23.644Z,5.26
2019-02-23T12:07:52.881Z,5.13
2019-02-23T12:10:22.059Z,5.12
2019-02-23T12:12:51.251Z,5.03
2019-02-23T12:15:20.381Z,5.25
2019-02-23T12:17:49.605Z,5.13
2019-02-23T12:20:21.199Z,5.19
2019-02-23T12:22:50.997Z,5.35
2019-02-23T12:25:22.092Z,5.50
2019-02-23T12:27:51.995Z,5.53
2019-02-23T12:30:21.754Z,5.59
2019-02-23T12:32:51.007Z,5.39
2019-02-23T12:35:46.199Z,5.62
2019-02-23T12:38:16.169Z,5.71
2019-02-23T12:40:45.289Z,5.67
2019-02-23T12:43:14.489Z,5.70
2019-02-23T12:45:43.627Z,5.84
2019-02-23T12:48:12.805Z,5.92
2019-02-23T12:50:41.968Z,5.92
2019-02-23T12:53:11.172Z,5.88
2019-02-23T12:55:40.309Z,5.98
2019-02-23T12:58:09.467Z,5.97
2019-02-23T13:00:38.603Z,5.90
2019-02-23T13:03:07.751Z,6.04
2019-02-23T13:05:37.165Z,5.92
2019-02-23T13:08:06.334Z,6.02
2019-02-23T13:10:56.231Z,6.04
2019-02-23T13:13:38.739Z,6.03
2019-02-23T13:16:28.271Z,5.89
2019-02-23T13:19:37.269Z,6.01
2019-02-23T13:22:38.662Z,5.75
2019-02-23T13:25:34.034Z,5.80
2019-02-23T13:28:53.496Z,5.72
2019-02-23T13:31:50.929Z,5.82
2019-02-23T13:34:55.856Z,5.83
2019-02-23T13:37:59.591Z,5.92
2019-02-23T13:40:58.868Z,5.96
2019-02-23T13:44:00.401Z,5.92
2019-02-23T13:47:03.171Z,5.93
2019-02-23T13:49:53.851Z,6.13
2019-02-23T13:52:56.002Z,6.12
2019-02-23T13:55:55.917Z,5.95
2019-02-23T13:58:59.162Z,5.95
2019-02-23T14:01:53.428Z,5.99
2019-02-23T14:04:39.513Z,6.15
2019-02-23T14:07:45.583Z,6.24
2019-02-23T14:10:34.912Z,6.24
2019-02-23T14:13:51.384Z,6.38
2019-02-23T14:16:46.009Z,6.33
2019-02-23T14:19:39.618Z,6.62
2019-02-23T14:22:50.936Z,6.62
2019-02-23T14:26:01.271Z,6.70
2019-02-23T14:28:57.058Z,6.47
2019-02-23T14:31:51.372Z,6.58
2019-02-23T14:34:50.969Z,6.59
2019-02-23T14:37:32.794Z,6.70
2019-02-23T14:40:31.158Z,6.62
2019-02-23T14:43:33.614Z,6.71
2019-02-23T14:46:43.457Z,6.86
2019-02-23T14:49:49.976Z,6.71
2019-02-23T14:53:08.276Z,6.63
2019-02-23T14:56:04.979Z,6.56
2019-02-23T14:58:53.694Z,6.42
2019-02-23T15:02:05.370Z,6.24
2019-02-23T15:05:17.260Z,6.68
2019-02-23T15:08:33.479Z,6.31
2019-02-23T15:11:36.290Z,6.23
2019-02-23T15:14:33.801Z,6.28
2019-02-23T15:17:32.524Z,6.37
2019-02-23T15:20:20.637Z,6.21
2019-02-23T15:23:42.793Z,6.25
2019-02-23T15:27:11.380Z,6.13
2019-02-23T15:30:05.724Z,6.25
2019-02-23T15:33:11.089Z,6.15
2019-02-23T15:36:20.490Z,6.17
2019-02-23T15:39:42.403Z,5.97
2019-02-23T15:42:58.300Z,6.03
2019-02-23T15:45:53.724Z,6.30
2019-02-23T15:48:47.911Z,6.20
2019-02-23T15:51:17.957Z,6.10
2019-02-23T15:53:47.048Z,5.91
2019-02-23T15:56:17.445Z,5.80
2019-02-23T15:58:46.586Z,5.79
2019-02-23T16:01:15.860Z,5.73
2019-02-23T16:03:45.149Z,5.71
2019-02-23T16:06:14.437Z,5.62
2019-02-23T16:08:44.706Z,5.65
2019-02-23T16:11:13.970Z,5.62
2019-02-23T16:13:43.356Z,5.65
2019-02-23T16:16:12.634Z,5.53
2019-02-23T16:18:41.768Z,5.44
2019-02-23T16:21:10.919Z,5.31
2019-02-23T16:23:40.068Z,5.40
2019-02-23T16:26:09.385Z,5.26
2019-02-23T16:28:40.074Z,5.20
2019-02-23T16:31:09.203Z,5.11
2019-02-23T16:33:38.710Z,5.01
2019-02-23T16:36:07.947Z,4.85
2019-02-23T16:38:37.067Z,4.81
2019-02-23T16:41:06.372Z,4.81
2019-02-23T16:43:35.475Z,4.76
2019-02-23T16:46:04.639Z,4.65
2019-02-23T16:48:34.176Z,4.56
2019-02-23T16:51:03.366Z,4.52
2019-02-23T16:53:32.488Z,4.51
2019-02-23T16:56:01.720Z,4.48
2019-02-23T16:58:30.872Z,4.39
2019-02-23T17:00:59.984Z,4.27
2019-02-23T17:03:29.160Z,4.25
2019-02-23T17:05:58.361Z,4.13
2019-02-23T17:08:27.434Z,3.83
2019-02-23T17:10:56.585Z,3.61
2019-02-23T17:13:25.745Z,3.53
2019-02-23T17:15:54.868Z,3.34
2019-02-23T17:18:23.968Z,3.21
2019-02-23T17:20:53.109Z,3.06
2019-02-23T17:23:22.307Z,2.98
2019-02-23T17:26:03.307Z,2.80
2019-02-23T17:28:22.401Z,2.74
2019-02-23T17:30:51.566Z,2.49
2019-02-23T17:33:20.743Z,2.55
2019-02-23T17:35:49.831Z,2.64
2019-02-23T17:38:18.943Z,2.65
2019-02-23T17:40:48.085Z,2.50
2019-02-23T17:43:17.280Z,2.25
2019-02-23T17:45:46.413Z,2.14
2019-02-23T17:48:15.592Z,2.10
2019-02-23T17:50:44.705Z,2.11
2019-02-23T17:53:13.826Z,2.20
2019-02-23T17:55:42.992Z,2.22
2019-02-23T17:58:12.125Z,2.18
2019-02-23T18:00:41.486Z,2.11
2019-02-23T18:03:10.631Z,2.04
2019-02-23T18:05:39.789Z,2.11
2019-02-23T18:08:08.991Z,2.07
2019-02-23T18:10:38.596Z,2.07
2019-02-23T18:13:07.882Z,2.06
2019-02-23T18:15:37.032Z,2.08
2019-02-23T18:18:06.309Z,2.18
2019-02-23T18:20:35.452Z,1.98
2019-02-23T18:23:04.618Z,2.01
2019-02-23T18:25:33.805Z,2.06
2019-02-23T18:28:03.181Z,2.04
2019-02-23T18:30:32.741Z,2.08
2019-02-23T18:33:02.099Z,2.09
2019-02-23T18:35:31.295Z,1.86
2019-02-23T18:38:00.835Z,1.64
2019-02-23T18:40:29.999Z,1.72
2019-02-23T18:42:59.143Z,1.75
2019-02-23T18:45:28.303Z,1.75
2019-02-23T18:47:57.591Z,1.72
2019-02-23T18:50:26.917Z,1.48
2019-02-23T18:52:56.169Z,1.54
2019-02-23T18:55:25.906Z,1.41
2019-02-23T18:57:55.479Z,1.37
2019-02-23T19:00:24.773Z,1.28
2019-02-23T19:02:54.052Z,1.23
2019-02-23T19:05:23.272Z,1.10
2019-02-23T19:07:52.578Z,1.11
2019-02-23T19:10:21.914Z,1.17
2019-02-23T19:12:51.389Z,1.06
2019-02-23T19:15:20.553Z,1.06
2019-02-23T19:17:49.709Z,1.13
2019-02-23T19:20:18.884Z,1.07
2019-02-23T19:22:48.006Z,1.11
2019-02-23T19:25:17.160Z,1.10
2019-02-23T19:27:46.282Z,1.05
2019-02-23T19:30:15.457Z,1.08
2019-02-23T19:32:44.567Z,1.04
2019-02-23T19:35:15.044Z,0.99
2019-02-23T19:37:44.179Z,0.87
2019-02-23T19:40:13.476Z,0.92
2019-02-23T19:42:42.634Z,0.89
2019-02-23T19:45:11.950Z,0.84
2019-02-23T19:47:41.508Z,0.70
2019-02-23T19:50:13.951Z,0.52
2019-02-23T19:52:43.144Z,0.47
2019-02-23T19:55:13.915Z,0.47
2019-02-23T19:57:43.129Z,0.38
2019-02-23T20:00:12.395Z,0.42
2019-02-23T20:02:41.518Z,0.55
2019-02-23T20:05:10.794Z,0.37
2019-02-23T20:07:40.172Z,0.60
2019-02-23T20:10:09.720Z,0.61
2019-02-23T20:12:38.966Z,0.53
2019-02-23T20:15:08.170Z,0.60
2019-02-23T20:17:37.416Z,0.56
2019-02-23T20:20:07.007Z,0.56
2019-02-23T20:22:36.302Z,0.36
2019-02-23T20:25:05.596Z,0.36
2019-02-23T20:27:34.952Z,0.35
2019-02-23T20:30:04.100Z,0.32
2019-02-23T20:32:38.131Z,0.27
2019-02-23T20:35:07.336Z,0.30
2019-02-23T20:37:36.469Z,0.21
2019-02-23T20:40:05.966Z,0.15
2019-02-23T20:42:35.038Z,0.22
2019-02-23T20:45:04.127Z,0.19
2019-02-23T20:47:36.266Z,0.14
2019-02-23T20:50:08.086Z,0.23
2019-02-23T20:52:37.302Z,0.14
2019-02-23T20:55:06.713Z,0.27
2019-02-23T20:57:35.934Z,0.04
2019-02-23T21:00:05.224Z,0.06
2019-02-23T21:02:34.555Z,0.11
2019-02-23T21:05:03.646Z,0.03
2019-02-23T21:07:32.904Z,0.06
2019-02-23T21:10:01.988Z,0.06
2019-02-23T21:12:31.023Z,-0.06
2019-02-23T21:15:00.094Z,-0.22
2019-02-23T21:17:29.461Z,-0.20
2019-02-23T21:19:58.571Z,-0.19
2019-02-23T21:22:28.846Z,-0.09
2019-02-23T21:24:57.913Z,-0.10
2019-02-23T21:27:26.882Z,-0.23
2019-02-23T21:29:56.014Z,-0.06
2019-02-23T21:32:25.198Z,-0.19
2019-02-23T21:34:54.229Z,-0.09
2019-02-23T21:37:23.343Z,-0.23
2019-02-23T21:39:52.469Z,-0.13
2019-02-23T21:42:23.040Z,-0.09
2019-02-23T21:44:52.269Z,-0.11
2019-02-23T21:47:21.408Z,-0.21
2019-02-23T21:49:50.823Z,-0.05
2019-02-23T21:52:19.976Z,-0.19
2019-02-23T21:54:49.195Z,-0.31
2019-02-23T21:57:22.204Z,-0.38
2019-02-23T21:59:49.299Z,-0.29
2019-02-23T22:02:18.474Z,-0.21
2019-02-23T22:04:47.946Z,-0.28
2019-02-23T22:07:17.063Z,-0.16
2019-02-23T22:09:46.114Z,-0.12
2019-02-23T22:12:18.102Z,-0.27
2019-02-23T22:14:47.297Z,-0.55
2019-02-23T22:17:16.436Z,-0.40
2019-02-23T22:19:45.538Z,-0.41
2019-02-23T22:22:14.675Z,-0.76
2019-02-23T22:24:43.827Z,-0.74
2019-02-23T22:27:12.934Z,-0.64
2019-02-23T22:29:42.176Z,-0.78
2019-02-23T22:32:11.256Z,-0.67
2019-02-23T22:34:41.718Z,-0.49
2019-02-23T22:37:11.134Z,-0.48
2019-02-23T22:39:40.279Z,-0.58
2019-02-23T22:42:09.444Z,-0.64
2019-02-23T22:44:38.581Z,-0.62
2019-02-23T22:47:07.689Z,-0.74
2019-02-23T22:49:37.206Z,-0.72
2019-02-23T22:52:06.471Z,-0.70
2019-02-23T22:54:35.561Z,-0.71
2019-02-23T22:57:04.750Z,-0.63
2019-02-23T22:59:36.394Z,-0.53
2019-02-23T23:02:08.286Z,-0.51
2019-02-23T23:04:37.197Z,-0.59
2019-02-23T23:07:12.280Z,-0.74
2019-02-23T23:09:41.295Z,-0.68
2019-02-23T23:12:10.678Z,-0.67
2019-02-23T23:14:46.750Z,-0.70
2019-02-23T23:17:16.475Z,-0.74
2019-02-23T23:19:45.540Z,-0.75
2019-02-23T23:22:14.639Z,-0.73
2019-02-23T23:24:43.668Z,-0.85
2019-02-23T23:27:12.790Z,-0.93
2019-02-23T23:29:44.257Z,-0.71
2019-02-23T23:32:18.646Z,-0.93
2019-02-23T23:34:47.646Z,-0.94
2019-02-23T23:37:16.772Z,-0.81
2019-02-23T23:39:45.820Z,-0.83
2019-02-23T23:42:14.916Z,-0.80
2019-02-23T23:44:45.088Z,-0.88
2019-02-23T23:47:14.193Z,-0.93
2019-02-23T23:49:43.214Z,-0.97
2019-02-23T23:52:12.237Z,-0.91
2019-02-23T23:54:41.334Z,-0.85
2019-02-23T23:57:10.433Z,-0.98
2019-02-23T23:59:39.424Z,-0.82
